sensor_id;sensor_type;location;lat;lon;timestamp;P1;durP1;ratioP1;P2;durP2;ratioP2
5929;SDS011;2990;48.746;9.236;2022-08-11T00:00:31;938.70;;;870.88;;
5929;SDS011;2990;48.746;9.236;2022-08-11T00:03:02;938.03;;;869.42;;
5929;SDS011;2990;48.746;9.236;2022-08-11T00:05:43;938.03;;;869.78;;
5929;SDS011;2990;48.746;9.236;2022-08-11T00:08:21;929.67;;;862.22;;
5929;SDS011;2990;48.746;9.236;2022-08-11T00:10:52;938.83;;;870.42;;
5929;SDS011;2990;48.746;9.236;2022-08-11T00:13:21;925.20;;;858.20;;
5929;SDS011;2990;48.746;9.236;2022-08-11T00:15:54;925.92;;;858.90;;
5929;SDS011;2990;48.746;9.236;2022-08-11T00:18:20;930.90;;;863.03;;
5929;SDS011;2990;48.746;9.236;2022-08-11T00:20:47;923.03;;;856.13;;
5929;SDS011;2990;48.746;9.236;2022-08-11T00:23:13;928.17;;;861.08;;
5929;SDS011;2990;48.746;9.236;2022-08-11T00:25:42;876.55;;;813.88;;
5929;SDS011;2990;48.746;9.236;2022-08-11T00:28:22;929.78;;;862.72;;
5929;SDS011;2990;48.746;9.236;2022-08-11T00:30:51;915.25;;;848.95;;
5929;SDS011;2990;48.746;9.236;2022-08-11T00:33:19;927.67;;;860.83;;
5929;SDS011;2990;48.746;9.236;2022-08-11T00:35:47;870.97;;;808.20;;
5929;SDS011;2990;48.746;9.236;2022-08-11T00:38:15;897.15;;;832.13;;
5929;SDS011;2990;48.746;9.236;2022-08-11T00:40:51;906.28;;;840.53;;
5929;SDS011;2990;48.746;9.236;2022-08-11T00:48:58;884.95;;;822.00;;
5929;SDS011;2990;48.746;9.236;2022-08-11T00:51:53;896.45;;;831.83;;
5929;SDS011;2990;48.746;9.236;2022-08-11T00:57:34;906.50;;;841.22;;
5929;SDS011;2990;48.746;9.236;2022-08-11T01:00:24;885.30;;;821.88;;
5929;SDS011;2990;48.746;9.236;2022-08-11T01:03:07;877.58;;;815.30;;
5929;SDS011;2990;48.746;9.236;2022-08-11T01:11:58;864.70;;;803.13;;
5929;SDS011;2990;48.746;9.236;2022-08-11T01:24:03;882.33;;;819.38;;
5929;SDS011;2990;48.746;9.236;2022-08-11T01:30:02;880.83;;;817.50;;
5929;SDS011;2990;48.746;9.236;2022-08-11T01:38:35;917.53;;;850.53;;
5929;SDS011;2990;48.746;9.236;2022-08-11T01:46:32;919.08;;;852.17;;
5929;SDS011;2990;48.746;9.236;2022-08-11T01:52:25;907.13;;;841.08;;
5929;SDS011;2990;48.746;9.236;2022-08-11T02:00:31;910.08;;;844.05;;
5929;SDS011;2990;48.746;9.236;2022-08-11T02:03:13;914.40;;;847.92;;
5929;SDS011;2990;48.746;9.236;2022-08-11T02:08:41;913.38;;;846.58;;
5929;SDS011;2990;48.746;9.236;2022-08-11T02:16:57;879.17;;;816.58;;
5929;SDS011;2990;48.746;9.236;2022-08-11T02:19:41;887.55;;;824.20;;
5929;SDS011;2990;48.746;9.236;2022-08-11T02:28:41;896.50;;;832.20;;
5929;SDS011;2990;48.746;9.236;2022-08-11T02:34:37;891.20;;;827.03;;
5929;SDS011;2990;48.746;9.236;2022-08-11T02:37:19;879.17;;;815.63;;
5929;SDS011;2990;48.746;9.236;2022-08-11T02:42:59;870.35;;;808.65;;
5929;SDS011;2990;48.746;9.236;2022-08-11T02:46:36;896.92;;;832.45;;
5929;SDS011;2990;48.746;9.236;2022-08-11T02:52:02;890.83;;;827.65;;
5929;SDS011;2990;48.746;9.236;2022-08-11T02:54:41;895.85;;;831.50;;
5929;SDS011;2990;48.746;9.236;2022-08-11T02:57:32;868.40;;;806.38;;
5929;SDS011;2990;48.746;9.236;2022-08-11T03:00:16;886.58;;;823.03;;
5929;SDS011;2990;48.746;9.236;2022-08-11T03:05:52;867.75;;;805.80;;
5929;SDS011;2990;48.746;9.236;2022-08-11T03:11:20;851.50;;;791.00;;
5929;SDS011;2990;48.746;9.236;2022-08-11T03:16:53;840.58;;;781.10;;
5929;SDS011;2990;48.746;9.236;2022-08-11T03:22:11;854.13;;;794.03;;
5929;SDS011;2990;48.746;9.236;2022-08-11T03:24:56;830.70;;;772.60;;
5929;SDS011;2990;48.746;9.236;2022-08-11T03:27:57;795.30;;;740.25;;
5929;SDS011;2990;48.746;9.236;2022-08-11T03:42:15;742.33;;;690.85;;
5929;SDS011;2990;48.746;9.236;2022-08-11T03:44:58;742.38;;;691.30;;
5929;SDS011;2990;48.746;9.236;2022-08-11T03:47:45;720.25;;;670.83;;
5929;SDS011;2990;48.746;9.236;2022-08-11T03:50:46;723.30;;;674.10;;
5929;SDS011;2990;48.746;9.236;2022-08-11T04:16:46;673.22;;;627.78;;
5929;SDS011;2990;48.746;9.236;2022-08-11T04:25:03;705.30;;;657.38;;
5929;SDS011;2990;48.746;9.236;2022-08-11T04:28:05;680.33;;;634.22;;
5929;SDS011;2990;48.746;9.236;2022-08-11T04:30:57;647.95;;;604.80;;
5929;SDS011;2990;48.746;9.236;2022-08-11T04:33:33;672.22;;;626.13;;
5929;SDS011;2990;48.746;9.236;2022-08-11T04:39:27;666.05;;;621.88;;
5929;SDS011;2990;48.746;9.236;2022-08-11T04:42:31;647.45;;;603.90;;
5929;SDS011;2990;48.746;9.236;2022-08-11T04:45:38;640.38;;;597.58;;
5929;SDS011;2990;48.746;9.236;2022-08-11T04:48:20;595.33;;;556.35;;
5929;SDS011;2990;48.746;9.236;2022-08-11T05:09:58;635.42;;;593.13;;
5929;SDS011;2990;48.746;9.236;2022-08-11T05:16:11;623.92;;;582.83;;
5929;SDS011;2990;48.746;9.236;2022-08-11T05:18:58;637.90;;;595.78;;
5929;SDS011;2990;48.746;9.236;2022-08-11T05:21:45;671.28;;;626.13;;
5929;SDS011;2990;48.746;9.236;2022-08-11T05:24:45;643.97;;;601.28;;
5929;SDS011;2990;48.746;9.236;2022-08-11T05:27:37;658.30;;;614.92;;
5929;SDS011;2990;48.746;9.236;2022-08-11T05:30:28;656.75;;;613.17;;
5929;SDS011;2990;48.746;9.236;2022-08-11T05:33:23;690.65;;;644.97;;
5929;SDS011;2990;48.746;9.236;2022-08-11T05:36:43;674.60;;;629.80;;
5929;SDS011;2990;48.746;9.236;2022-08-11T05:39:43;688.85;;;643.30;;
5929;SDS011;2990;48.746;9.236;2022-08-11T05:42:31;669.22;;;624.72;;
5929;SDS011;2990;48.746;9.236;2022-08-11T05:45:17;708.72;;;661.42;;
5929;SDS011;2990;48.746;9.236;2022-08-11T05:48:02;719.30;;;670.88;;
5929;SDS011;2990;48.746;9.236;2022-08-11T05:50:51;738.60;;;688.67;;
5929;SDS011;2990;48.746;9.236;2022-08-11T05:53:42;749.97;;;699.60;;
5929;SDS011;2990;48.746;9.236;2022-08-11T05:56:38;751.42;;;701.05;;
5929;SDS011;2990;48.746;9.236;2022-08-11T05:59:15;774.78;;;722.58;;
5929;SDS011;2990;48.746;9.236;2022-08-11T06:01:43;772.45;;;720.22;;
5929;SDS011;2990;48.746;9.236;2022-08-11T06:04:14;801.22;;;746.88;;
5929;SDS011;2990;48.746;9.236;2022-08-11T06:09:50;801.33;;;746.17;;
5929;SDS011;2990;48.746;9.236;2022-08-11T06:12:18;848.60;;;789.45;;
5929;SDS011;2990;48.746;9.236;2022-08-11T06:14:50;885.17;;;823.15;;
5929;SDS011;2990;48.746;9.236;2022-08-11T06:17:22;858.10;;;797.88;;
5929;SDS011;2990;48.746;9.236;2022-08-11T06:19:50;884.42;;;821.60;;
5929;SDS011;2990;48.746;9.236;2022-08-11T06:22:23;921.58;;;855.33;;
5929;SDS011;2990;48.746;9.236;2022-08-11T06:24:57;902.50;;;838.45;;
5929;SDS011;2990;48.746;9.236;2022-08-11T06:27:25;897.80;;;833.90;;
5929;SDS011;2990;48.746;9.236;2022-08-11T06:29:53;889.13;;;825.97;;
5929;SDS011;2990;48.746;9.236;2022-08-11T06:32:24;912.72;;;847.35;;
5929;SDS011;2990;48.746;9.236;2022-08-11T06:34:57;944.35;;;875.67;;
5929;SDS011;2990;48.746;9.236;2022-08-11T06:37:38;951.20;;;881.95;;
5929;SDS011;2990;48.746;9.236;2022-08-11T06:43:25;953.10;;;883.20;;
5929;SDS011;2990;48.746;9.236;2022-08-11T06:46:02;971.50;;;899.00;;
5929;SDS011;2990;48.746;9.236;2022-08-11T06:48:32;993.70;;;918.75;;
5929;SDS011;2990;48.746;9.236;2022-08-11T06:50:59;1013.83;;;935.40;;
5929;SDS011;2990;48.746;9.236;2022-08-11T06:53:38;1031.25;;;951.47;;
5929;SDS011;2990;48.746;9.236;2022-08-11T06:56:08;1029.82;;;948.67;;
5929;SDS011;2990;48.746;9.236;2022-08-11T06:58:53;1039.90;;;956.90;;
5929;SDS011;2990;48.746;9.236;2022-08-11T07:01:41;1027.07;;;946.22;;
5929;SDS011;2990;48.746;9.236;2022-08-11T07:04:31;1069.57;;;983.20;;
5929;SDS011;2990;48.746;9.236;2022-08-11T07:07:16;1070.63;;;984.78;;
5929;SDS011;2990;48.746;9.236;2022-08-11T07:13:15;1074.50;;;987.13;;
5929;SDS011;2990;48.746;9.236;2022-08-11T07:16:04;1095.18;;;998.90;;
5929;SDS011;2990;48.746;9.236;2022-08-11T07:18:33;1112.78;;;999.90;;
5929;SDS011;2990;48.746;9.236;2022-08-11T07:24:12;1102.57;;;999.90;;
5929;SDS011;2990;48.746;9.236;2022-08-11T07:26:59;1111.50;;;999.90;;
5929;SDS011;2990;48.746;9.236;2022-08-11T07:29:47;1107.07;;;999.53;;
5929;SDS011;2990;48.746;9.236;2022-08-11T07:32:16;1184.20;;;999.90;;
5929;SDS011;2990;48.746;9.236;2022-08-11T07:34:49;1181.53;;;999.90;;
5929;SDS011;2990;48.746;9.236;2022-08-11T07:37:19;1210.88;;;999.90;;
5929;SDS011;2990;48.746;9.236;2022-08-11T07:39:48;1179.75;;;999.90;;
5929;SDS011;2990;48.746;9.236;2022-08-11T07:42:15;1216.80;;;999.90;;
5929;SDS011;2990;48.746;9.236;2022-08-11T07:44:45;1207.05;;;999.90;;
5929;SDS011;2990;48.746;9.236;2022-08-11T07:47:31;1233.22;;;999.90;;
5929;SDS011;2990;48.746;9.236;2022-08-11T07:50:17;1239.97;;;999.90;;
5929;SDS011;2990;48.746;9.236;2022-08-11T07:53:01;1218.13;;;999.90;;
5929;SDS011;2990;48.746;9.236;2022-08-11T07:55:28;1242.45;;;999.90;;
5929;SDS011;2990;48.746;9.236;2022-08-11T07:57:58;1257.88;;;999.90;;
5929;SDS011;2990;48.746;9.236;2022-08-11T08:03:33;1249.45;;;999.90;;
5929;SDS011;2990;48.746;9.236;2022-08-11T08:06:18;1245.47;;;999.90;;
5929;SDS011;2990;48.746;9.236;2022-08-11T08:09:03;1196.80;;;999.90;;
5929;SDS011;2990;48.746;9.236;2022-08-11T08:11:49;1221.68;;;999.90;;
5929;SDS011;2990;48.746;9.236;2022-08-11T08:14:33;1192.97;;;999.90;;
5929;SDS011;2990;48.746;9.236;2022-08-11T08:17:18;1192.38;;;999.90;;
5929;SDS011;2990;48.746;9.236;2022-08-11T08:20:04;1227.22;;;999.90;;
5929;SDS011;2990;48.746;9.236;2022-08-11T08:22:32;1225.50;;;999.90;;
5929;SDS011;2990;48.746;9.236;2022-08-11T08:24:59;1210.03;;;999.90;;
5929;SDS011;2990;48.746;9.236;2022-08-11T08:27:25;1221.75;;;999.90;;
5929;SDS011;2990;48.746;9.236;2022-08-11T08:29:51;1215.75;;;999.90;;
5929;SDS011;2990;48.746;9.236;2022-08-11T08:32:39;1156.00;;;999.90;;
5929;SDS011;2990;48.746;9.236;2022-08-11T08:35:09;1200.00;;;999.90;;
5929;SDS011;2990;48.746;9.236;2022-08-11T08:37:35;1155.30;;;999.90;;
5929;SDS011;2990;48.746;9.236;2022-08-11T08:40:02;1196.20;;;999.90;;
5929;SDS011;2990;48.746;9.236;2022-08-11T08:42:31;1178.10;;;999.90;;
5929;SDS011;2990;48.746;9.236;2022-08-11T08:45:04;1182.15;;;999.90;;
5929;SDS011;2990;48.746;9.236;2022-08-11T08:47:37;1197.88;;;999.90;;
5929;SDS011;2990;48.746;9.236;2022-08-11T08:50:10;1192.63;;;999.90;;
5929;SDS011;2990;48.746;9.236;2022-08-11T08:52:39;1199.68;;;999.90;;
5929;SDS011;2990;48.746;9.236;2022-08-11T08:55:10;1192.22;;;999.90;;
5929;SDS011;2990;48.746;9.236;2022-08-11T08:57:41;1202.93;;;999.90;;
5929;SDS011;2990;48.746;9.236;2022-08-11T09:00:09;1179.65;;;999.90;;
5929;SDS011;2990;48.746;9.236;2022-08-11T09:02:35;1202.85;;;999.90;;
5929;SDS011;2990;48.746;9.236;2022-08-11T09:05:02;1200.32;;;999.90;;
5929;SDS011;2990;48.746;9.236;2022-08-11T09:07:28;1174.68;;;999.90;;
5929;SDS011;2990;48.746;9.236;2022-08-11T09:09:56;1195.63;;;999.90;;
5929;SDS011;2990;48.746;9.236;2022-08-11T09:12:27;1196.47;;;999.90;;
5929;SDS011;2990;48.746;9.236;2022-08-11T09:14:54;1185.78;;;999.90;;
5929;SDS011;2990;48.746;9.236;2022-08-11T09:17:32;1189.82;;;999.90;;
5929;SDS011;2990;48.746;9.236;2022-08-11T09:20:02;1195.35;;;999.90;;
5929;SDS011;2990;48.746;9.236;2022-08-11T09:22:32;1217.55;;;999.90;;
5929;SDS011;2990;48.746;9.236;2022-08-11T09:25:18;1195.00;;;999.90;;
5929;SDS011;2990;48.746;9.236;2022-08-11T09:28:04;1150.43;;;999.90;;
5929;SDS011;2990;48.746;9.236;2022-08-11T09:30:34;1147.43;;;999.90;;
5929;SDS011;2990;48.746;9.236;2022-08-11T09:33:01;1072.72;;;983.50;;
5929;SDS011;2990;48.746;9.236;2022-08-11T09:35:29;1056.95;;;970.15;;
5929;SDS011;2990;48.746;9.236;2022-08-11T09:37:58;1069.60;;;980.30;;
5929;SDS011;2990;48.746;9.236;2022-08-11T09:40:44;1016.90;;;938.05;;
5929;SDS011;2990;48.746;9.236;2022-08-11T09:43:11;1043.47;;;959.17;;
5929;SDS011;2990;48.746;9.236;2022-08-11T09:45:59;1000.58;;;923.63;;
5929;SDS011;2990;48.746;9.236;2022-08-11T09:48:26;1006.33;;;927.50;;
5929;SDS011;2990;48.746;9.236;2022-08-11T09:50:55;999.72;;;922.33;;
5929;SDS011;2990;48.746;9.236;2022-08-11T09:53:24;993.00;;;917.67;;
5929;SDS011;2990;48.746;9.236;2022-08-11T09:55:52;966.28;;;893.08;;
5929;SDS011;2990;48.746;9.236;2022-08-11T09:58:19;927.22;;;860.05;;
5929;SDS011;2990;48.746;9.236;2022-08-11T10:00:48;921.63;;;856.33;;
5929;SDS011;2990;48.746;9.236;2022-08-11T10:03:16;920.33;;;854.85;;
5929;SDS011;2990;48.746;9.236;2022-08-11T10:05:48;904.58;;;841.15;;
5929;SDS011;2990;48.746;9.236;2022-08-11T10:08:37;931.33;;;865.10;;
5929;SDS011;2990;48.746;9.236;2022-08-11T10:11:05;920.75;;;854.97;;
5929;SDS011;2990;48.746;9.236;2022-08-11T10:13:40;922.72;;;856.35;;
5929;SDS011;2990;48.746;9.236;2022-08-11T10:16:28;935.33;;;868.35;;
5929;SDS011;2990;48.746;9.236;2022-08-11T10:18:57;978.38;;;905.58;;
5929;SDS011;2990;48.746;9.236;2022-08-11T10:24:08;951.70;;;882.45;;
5929;SDS011;2990;48.746;9.236;2022-08-11T10:26:54;1008.97;;;931.70;;
5929;SDS011;2990;48.746;9.236;2022-08-11T10:32:13;989.92;;;915.22;;
5929;SDS011;2990;48.746;9.236;2022-08-11T10:35:00;1048.45;;;966.47;;
5929;SDS011;2990;48.746;9.236;2022-08-11T10:37:26;1064.38;;;978.85;;
5929;SDS011;2990;48.746;9.236;2022-08-11T10:39:58;1102.93;;;999.90;;
5929;SDS011;2990;48.746;9.236;2022-08-11T10:42:25;1114.53;;;999.90;;
5929;SDS011;2990;48.746;9.236;2022-08-11T10:45:09;1158.43;;;999.90;;
5929;SDS011;2990;48.746;9.236;2022-08-11T10:47:55;1189.65;;;999.90;;
5929;SDS011;2990;48.746;9.236;2022-08-11T10:50:21;1179.10;;;999.90;;
5929;SDS011;2990;48.746;9.236;2022-08-11T10:53:07;1164.50;;;999.90;;
5929;SDS011;2990;48.746;9.236;2022-08-11T10:55:52;1166.03;;;999.90;;
5929;SDS011;2990;48.746;9.236;2022-08-11T10:58:37;1132.28;;;999.90;;
5929;SDS011;2990;48.746;9.236;2022-08-11T11:03:46;1198.43;;;999.90;;
5929;SDS011;2990;48.746;9.236;2022-08-11T11:08:49;1200.75;;;999.90;;
5929;SDS011;2990;48.746;9.236;2022-08-11T11:11:21;1243.18;;;999.90;;
5929;SDS011;2990;48.746;9.236;2022-08-11T11:14:11;1241.88;;;999.90;;
5929;SDS011;2990;48.746;9.236;2022-08-11T11:17:05;1248.35;;;999.90;;
5929;SDS011;2990;48.746;9.236;2022-08-11T11:19:39;1999.90;;;999.90;;
5929;SDS011;2990;48.746;9.236;2022-08-11T11:22:06;1999.90;;;999.90;;
5929;SDS011;2990;48.746;9.236;2022-08-11T11:27:35;1999.90;;;999.90;;
5929;SDS011;2990;48.746;9.236;2022-08-11T11:30:17;1999.90;;;999.90;;
5929;SDS011;2990;48.746;9.236;2022-08-11T11:32:58;1999.90;;;999.90;;
5929;SDS011;2990;48.746;9.236;2022-08-11T11:38:21;1999.90;;;999.90;;
5929;SDS011;2990;48.746;9.236;2022-08-11T11:40:47;1999.90;;;999.90;;
5929;SDS011;2990;48.746;9.236;2022-08-11T11:43:34;1999.90;;;999.90;;
5929;SDS011;2990;48.746;9.236;2022-08-11T11:46:01;1999.90;;;999.90;;
5929;SDS011;2990;48.746;9.236;2022-08-11T11:48:29;1999.90;;;999.90;;
5929;SDS011;2990;48.746;9.236;2022-08-11T11:50:56;1999.90;;;999.90;;
5929;SDS011;2990;48.746;9.236;2022-08-11T11:53:22;1999.90;;;999.90;;
5929;SDS011;2990;48.746;9.236;2022-08-11T11:55:48;1999.90;;;999.90;;
5929;SDS011;2990;48.746;9.236;2022-08-11T11:58:15;1999.90;;;999.90;;
5929;SDS011;2990;48.746;9.236;2022-08-11T12:01:00;1999.90;;;999.90;;
5929;SDS011;2990;48.746;9.236;2022-08-11T12:03:45;1999.90;;;999.90;;
5929;SDS011;2990;48.746;9.236;2022-08-11T12:06:13;1999.90;;;999.90;;
5929;SDS011;2990;48.746;9.236;2022-08-11T12:08:42;1999.90;;;999.90;;
5929;SDS011;2990;48.746;9.236;2022-08-11T12:11:11;1999.90;;;999.90;;
5929;SDS011;2990;48.746;9.236;2022-08-11T12:13:57;1999.90;;;999.90;;
5929;SDS011;2990;48.746;9.236;2022-08-11T12:16:27;1999.90;;;999.90;;
5929;SDS011;2990;48.746;9.236;2022-08-11T12:18:59;1999.90;;;999.90;;
5929;SDS011;2990;48.746;9.236;2022-08-11T12:21:27;1999.90;;;999.90;;
5929;SDS011;2990;48.746;9.236;2022-08-11T12:23:54;1999.90;;;999.90;;
5929;SDS011;2990;48.746;9.236;2022-08-11T12:26:40;1999.90;;;999.90;;
5929;SDS011;2990;48.746;9.236;2022-08-11T12:29:19;1999.90;;;999.90;;
5929;SDS011;2990;48.746;9.236;2022-08-11T12:31:51;1999.90;;;999.90;;
5929;SDS011;2990;48.746;9.236;2022-08-11T12:34:19;1999.90;;;999.90;;
5929;SDS011;2990;48.746;9.236;2022-08-11T12:36:45;1999.90;;;999.90;;
5929;SDS011;2990;48.746;9.236;2022-08-11T12:39:18;1999.90;;;999.90;;
5929;SDS011;2990;48.746;9.236;2022-08-11T12:42:07;1999.90;;;999.90;;
5929;SDS011;2990;48.746;9.236;2022-08-11T12:44:53;1999.90;;;999.90;;
5929;SDS011;2990;48.746;9.236;2022-08-11T12:47:39;1999.90;;;999.90;;
5929;SDS011;2990;48.746;9.236;2022-08-11T12:50:29;1999.90;;;999.90;;
5929;SDS011;2990;48.746;9.236;2022-08-11T12:53:13;1999.90;;;999.90;;
5929;SDS011;2990;48.746;9.236;2022-08-11T12:55:39;1999.90;;;999.90;;
5929;SDS011;2990;48.746;9.236;2022-08-11T12:58:25;1999.90;;;999.90;;
5929;SDS011;2990;48.746;9.236;2022-08-11T13:00:51;1999.90;;;999.90;;
5929;SDS011;2990;48.746;9.236;2022-08-11T13:03:36;1999.90;;;999.90;;
5929;SDS011;2990;48.746;9.236;2022-08-11T13:06:22;1999.90;;;999.90;;
5929;SDS011;2990;48.746;9.236;2022-08-11T13:08:48;1999.90;;;999.90;;
5929;SDS011;2990;48.746;9.236;2022-08-11T13:11:15;1999.90;;;999.90;;
5929;SDS011;2990;48.746;9.236;2022-08-11T13:14:00;1999.90;;;999.90;;
5929;SDS011;2990;48.746;9.236;2022-08-11T13:16:29;1999.90;;;999.90;;
5929;SDS011;2990;48.746;9.236;2022-08-11T13:19:16;1999.90;;;999.90;;
5929;SDS011;2990;48.746;9.236;2022-08-11T13:21:43;1999.90;;;999.90;;
5929;SDS011;2990;48.746;9.236;2022-08-11T13:24:10;1999.90;;;999.90;;
5929;SDS011;2990;48.746;9.236;2022-08-11T13:26:36;1999.90;;;999.90;;
5929;SDS011;2990;48.746;9.236;2022-08-11T13:29:02;1999.90;;;999.90;;
5929;SDS011;2990;48.746;9.236;2022-08-11T13:31:29;1999.90;;;999.90;;
5929;SDS011;2990;48.746;9.236;2022-08-11T13:33:56;1999.90;;;999.90;;
5929;SDS011;2990;48.746;9.236;2022-08-11T13:36:23;1999.90;;;999.90;;
5929;SDS011;2990;48.746;9.236;2022-08-11T13:38:52;1999.90;;;999.90;;
5929;SDS011;2990;48.746;9.236;2022-08-11T13:41:19;1999.90;;;999.90;;
5929;SDS011;2990;48.746;9.236;2022-08-11T13:44:06;1999.90;;;999.90;;
5929;SDS011;2990;48.746;9.236;2022-08-11T13:46:33;1999.90;;;999.90;;
5929;SDS011;2990;48.746;9.236;2022-08-11T13:48:59;1999.90;;;999.90;;
5929;SDS011;2990;48.746;9.236;2022-08-11T13:51:26;1999.90;;;999.90;;
5929;SDS011;2990;48.746;9.236;2022-08-11T13:54:06;1999.90;;;999.90;;
5929;SDS011;2990;48.746;9.236;2022-08-11T13:56:42;1999.90;;;999.90;;
5929;SDS011;2990;48.746;9.236;2022-08-11T13:59:10;1999.90;;;999.90;;
5929;SDS011;2990;48.746;9.236;2022-08-11T14:01:40;1999.90;;;999.90;;
5929;SDS011;2990;48.746;9.236;2022-08-11T14:04:09;1999.90;;;999.90;;
5929;SDS011;2990;48.746;9.236;2022-08-11T14:06:37;1999.90;;;999.90;;
5929;SDS011;2990;48.746;9.236;2022-08-11T14:09:09;1999.90;;;999.90;;
5929;SDS011;2990;48.746;9.236;2022-08-11T14:11:35;1999.90;;;999.90;;
5929;SDS011;2990;48.746;9.236;2022-08-11T14:14:24;1999.90;;;999.90;;
5929;SDS011;2990;48.746;9.236;2022-08-11T14:16:55;1999.90;;;999.90;;
5929;SDS011;2990;48.746;9.236;2022-08-11T14:19:24;1999.90;;;999.90;;
5929;SDS011;2990;48.746;9.236;2022-08-11T14:21:50;1999.90;;;999.90;;
5929;SDS011;2990;48.746;9.236;2022-08-11T14:24:40;1999.90;;;999.90;;
5929;SDS011;2990;48.746;9.236;2022-08-11T14:27:08;1999.90;;;999.90;;
5929;SDS011;2990;48.746;9.236;2022-08-11T14:29:36;1999.90;;;999.90;;
5929;SDS011;2990;48.746;9.236;2022-08-11T14:32:05;1999.90;;;999.90;;
5929;SDS011;2990;48.746;9.236;2022-08-11T14:34:33;1999.90;;;999.90;;
5929;SDS011;2990;48.746;9.236;2022-08-11T14:37:04;1999.90;;;999.90;;
5929;SDS011;2990;48.746;9.236;2022-08-11T14:39:33;1999.90;;;999.90;;
5929;SDS011;2990;48.746;9.236;2022-08-11T14:42:03;1999.90;;;999.90;;
5929;SDS011;2990;48.746;9.236;2022-08-11T14:44:50;1999.90;;;999.90;;
5929;SDS011;2990;48.746;9.236;2022-08-11T14:47:39;1999.90;;;999.90;;
5929;SDS011;2990;48.746;9.236;2022-08-11T14:50:07;1999.90;;;999.90;;
5929;SDS011;2990;48.746;9.236;2022-08-11T14:53:11;1999.90;;;999.90;;
5929;SDS011;2990;48.746;9.236;2022-08-11T14:55:34;1999.90;;;999.90;;
5929;SDS011;2990;48.746;9.236;2022-08-11T14:58:21;1999.90;;;999.90;;
5929;SDS011;2990;48.746;9.236;2022-08-11T15:00:51;1999.90;;;999.90;;
5929;SDS011;2990;48.746;9.236;2022-08-11T15:03:18;1999.90;;;999.90;;
5929;SDS011;2990;48.746;9.236;2022-08-11T15:05:52;1999.90;;;999.90;;
5929;SDS011;2990;48.746;9.236;2022-08-11T15:08:20;1999.90;;;999.90;;
5929;SDS011;2990;48.746;9.236;2022-08-11T15:11:10;1999.90;;;999.90;;
5929;SDS011;2990;48.746;9.236;2022-08-11T15:14:03;1999.90;;;999.90;;
5929;SDS011;2990;48.746;9.236;2022-08-11T15:16:31;1999.90;;;999.90;;
5929;SDS011;2990;48.746;9.236;2022-08-11T15:19:17;1999.90;;;999.90;;
5929;SDS011;2990;48.746;9.236;2022-08-11T15:21:48;1999.90;;;999.90;;
5929;SDS011;2990;48.746;9.236;2022-08-11T15:24:32;1999.90;;;999.90;;
5929;SDS011;2990;48.746;9.236;2022-08-11T15:27:00;1999.90;;;999.90;;
5929;SDS011;2990;48.746;9.236;2022-08-11T15:29:51;1999.90;;;999.90;;
5929;SDS011;2990;48.746;9.236;2022-08-11T15:32:37;1999.90;;;999.90;;
5929;SDS011;2990;48.746;9.236;2022-08-11T15:35:23;1999.90;;;999.90;;
5929;SDS011;2990;48.746;9.236;2022-08-11T15:38:09;1999.90;;;999.90;;
5929;SDS011;2990;48.746;9.236;2022-08-11T15:40:38;1999.90;;;999.90;;
5929;SDS011;2990;48.746;9.236;2022-08-11T15:43:25;1999.90;;;999.90;;
5929;SDS011;2990;48.746;9.236;2022-08-11T15:46:15;1999.90;;;999.90;;
5929;SDS011;2990;48.746;9.236;2022-08-11T15:48:51;1999.90;;;999.90;;
5929;SDS011;2990;48.746;9.236;2022-08-11T15:54:09;1999.90;;;999.90;;
5929;SDS011;2990;48.746;9.236;2022-08-11T15:56:43;1999.90;;;999.90;;
5929;SDS011;2990;48.746;9.236;2022-08-11T15:59:14;1999.90;;;999.90;;
5929;SDS011;2990;48.746;9.236;2022-08-11T16:02:00;1999.90;;;999.90;;
5929;SDS011;2990;48.746;9.236;2022-08-11T16:04:47;1999.90;;;999.90;;
5929;SDS011;2990;48.746;9.236;2022-08-11T16:07:14;1999.90;;;999.90;;
5929;SDS011;2990;48.746;9.236;2022-08-11T16:10:07;1999.90;;;999.90;;
5929;SDS011;2990;48.746;9.236;2022-08-11T16:12:36;1999.90;;;999.90;;
5929;SDS011;2990;48.746;9.236;2022-08-11T16:15:06;1999.90;;;999.90;;
5929;SDS011;2990;48.746;9.236;2022-08-11T16:17:53;1999.90;;;999.90;;
5929;SDS011;2990;48.746;9.236;2022-08-11T16:20:29;1999.90;;;999.90;;
5929;SDS011;2990;48.746;9.236;2022-08-11T16:22:56;1999.90;;;999.90;;
5929;SDS011;2990;48.746;9.236;2022-08-11T16:25:26;1999.90;;;999.90;;
5929;SDS011;2990;48.746;9.236;2022-08-11T16:27:56;1999.90;;;999.90;;
5929;SDS011;2990;48.746;9.236;2022-08-11T16:30:30;1999.90;;;999.90;;
5929;SDS011;2990;48.746;9.236;2022-08-11T16:32:57;1999.90;;;999.90;;
5929;SDS011;2990;48.746;9.236;2022-08-11T16:35:25;1999.90;;;999.90;;
5929;SDS011;2990;48.746;9.236;2022-08-11T16:38:11;1999.90;;;999.90;;
5929;SDS011;2990;48.746;9.236;2022-08-11T16:40:57;1999.90;;;999.90;;
5929;SDS011;2990;48.746;9.236;2022-08-11T16:43:26;1999.90;;;999.90;;
5929;SDS011;2990;48.746;9.236;2022-08-11T16:46:15;1999.90;;;999.90;;
5929;SDS011;2990;48.746;9.236;2022-08-11T16:49:01;1999.90;;;999.90;;
5929;SDS011;2990;48.746;9.236;2022-08-11T16:51:35;1999.90;;;999.90;;
5929;SDS011;2990;48.746;9.236;2022-08-11T16:54:01;1999.90;;;999.90;;
5929;SDS011;2990;48.746;9.236;2022-08-11T16:59:09;1999.90;;;999.90;;
5929;SDS011;2990;48.746;9.236;2022-08-11T17:04:27;1999.90;;;999.90;;
5929;SDS011;2990;48.746;9.236;2022-08-11T17:07:33;1999.90;;;999.90;;
5929;SDS011;2990;48.746;9.236;2022-08-11T17:10:37;1999.90;;;999.90;;
5929;SDS011;2990;48.746;9.236;2022-08-11T17:13:28;1999.90;;;999.90;;
5929;SDS011;2990;48.746;9.236;2022-08-11T17:16:00;1999.90;;;999.90;;
5929;SDS011;2990;48.746;9.236;2022-08-11T17:18:30;1999.90;;;999.90;;
5929;SDS011;2990;48.746;9.236;2022-08-11T17:21:17;1999.90;;;999.90;;
5929;SDS011;2990;48.746;9.236;2022-08-11T17:23:55;1999.90;;;999.90;;
5929;SDS011;2990;48.746;9.236;2022-08-11T17:26:30;1999.90;;;999.90;;
5929;SDS011;2990;48.746;9.236;2022-08-11T17:29:19;1999.90;;;999.90;;
5929;SDS011;2990;48.746;9.236;2022-08-11T17:31:48;1999.90;;;999.90;;
5929;SDS011;2990;48.746;9.236;2022-08-11T17:34:33;1999.90;;;999.90;;
5929;SDS011;2990;48.746;9.236;2022-08-11T17:37:18;1999.90;;;999.90;;
5929;SDS011;2990;48.746;9.236;2022-08-11T17:39:45;1999.90;;;999.90;;
5929;SDS011;2990;48.746;9.236;2022-08-11T17:42:12;1999.90;;;999.90;;
5929;SDS011;2990;48.746;9.236;2022-08-11T17:44:58;1999.90;;;999.90;;
5929;SDS011;2990;48.746;9.236;2022-08-11T17:47:43;1999.90;;;999.90;;
5929;SDS011;2990;48.746;9.236;2022-08-11T17:50:28;1999.90;;;999.90;;
5929;SDS011;2990;48.746;9.236;2022-08-11T17:52:54;1999.90;;;999.90;;
5929;SDS011;2990;48.746;9.236;2022-08-11T17:55:39;1999.90;;;999.90;;
5929;SDS011;2990;48.746;9.236;2022-08-11T17:58:25;1999.90;;;999.90;;
5929;SDS011;2990;48.746;9.236;2022-08-11T18:01:10;1999.90;;;999.90;;
5929;SDS011;2990;48.746;9.236;2022-08-11T18:03:37;1999.90;;;999.90;;
5929;SDS011;2990;48.746;9.236;2022-08-11T18:06:06;1999.90;;;999.90;;
5929;SDS011;2990;48.746;9.236;2022-08-11T18:08:35;1999.90;;;999.90;;
5929;SDS011;2990;48.746;9.236;2022-08-11T18:11:23;1999.90;;;999.90;;
5929;SDS011;2990;48.746;9.236;2022-08-11T18:14:10;1999.90;;;999.90;;
5929;SDS011;2990;48.746;9.236;2022-08-11T18:16:56;1999.90;;;999.90;;
5929;SDS011;2990;48.746;9.236;2022-08-11T18:19:40;1999.90;;;999.90;;